createdAt,value
2023-01-12T00:01:41.269Z,100192.00
2023-01-12T00:04:08.402Z,100188.00
2023-01-12T00:06:35.290Z,100174.00
2023-01-12T00:09:02.804Z,100179.00
2023-01-12T00:11:29.671Z,100177.00
2023-01-12T00:13:56.303Z,100183.00
2023-01-12T00:16:44.245Z,100185.00
2023-01-12T00:19:16.553Z,100189.00
2023-01-12T00:22:00.100Z,100187.00
2023-01-12T00:24:29.086Z,100178.00
2023-01-12T00:26:57.213Z,100191.00
2023-01-12T00:29:24.880Z,100188.00
2023-01-12T00:31:52.813Z,100196.00
2023-01-12T00:34:19.568Z,100209.00
2023-01-12T00:36:46.915Z,100201.00
2023-01-12T00:39:14.576Z,100207.00
2023-01-12T00:42:00.593Z,100196.00
2023-01-12T00:44:46.020Z,100189.00
2023-01-12T00:47:13.662Z,100187.00
2023-01-12T00:49:41.306Z,100180.00
2023-01-12T00:52:13.287Z,100196.00
2023-01-12T00:54:42.403Z,100180.00
2023-01-12T00:57:09.841Z,100188.00
2023-01-12T00:59:36.435Z,100160.00
2023-01-12T01:02:03.692Z,100169.00
2023-01-12T01:04:30.306Z,100171.00
2023-01-12T01:06:57.307Z,100173.00
2023-01-12T01:09:23.909Z,100175.00
2023-01-12T01:11:50.431Z,100170.00
2023-01-12T01:14:16.979Z,100171.00
2023-01-12T01:16:43.505Z,100167.00
2023-01-12T01:19:10.102Z,100170.00
2023-01-12T01:21:36.698Z,100189.00
2023-01-12T01:24:03.556Z,100159.00
2023-01-12T01:26:31.692Z,100163.00
2023-01-12T01:28:58.267Z,100170.00
2023-01-12T01:31:25.944Z,100172.00
2023-01-12T01:33:52.603Z,100168.00
2023-01-12T01:36:28.878Z,100162.00
2023-01-12T01:38:55.796Z,100174.00
2023-01-12T01:41:32.726Z,100159.00
2023-01-12T01:44:04.783Z,100145.00
2023-01-12T01:46:50.737Z,100126.00
2023-01-12T01:49:37.988Z,100134.00
2023-01-12T01:52:12.766Z,100137.00
2023-01-12T01:54:51.278Z,100128.00
2023-01-12T01:57:18.306Z,100130.00
2023-01-12T01:59:50.048Z,100135.00
2023-01-12T02:02:17.283Z,100103.00
2023-01-12T02:04:44.634Z,100114.00
2023-01-12T02:07:11.548Z,100102.00
2023-01-12T02:09:38.475Z,100120.00
2023-01-12T02:12:23.974Z,100121.00
2023-01-12T02:15:09.437Z,100107.00
2023-01-12T02:17:54.077Z,100106.00
2023-01-12T02:20:20.585Z,100107.00
2023-01-12T02:23:05.589Z,100099.00
2023-01-12T02:25:32.103Z,100105.00
2023-01-12T02:28:11.547Z,100101.00
2023-01-12T02:31:02.920Z,100091.00
2023-01-12T02:33:57.107Z,100090.00
2023-01-12T02:36:41.877Z,100074.00
2023-01-12T02:39:15.825Z,100097.00
2023-01-12T02:42:16.450Z,100098.00
2023-01-12T02:44:52.982Z,100086.00
2023-01-12T02:47:51.726Z,100088.00
2023-01-12T02:50:40.970Z,100089.00
2023-01-12T02:53:14.290Z,100093.00
2023-01-12T02:55:41.612Z,100078.00
2023-01-12T02:58:10.106Z,100088.00
2023-01-12T03:00:38.203Z,100080.00
2023-01-12T03:03:06.236Z,100074.00
2023-01-12T03:05:33.009Z,100088.00
2023-01-12T03:08:01.568Z,100078.00
2023-01-12T03:10:39.590Z,100080.00
2023-01-12T03:13:10.071Z,100078.00
2023-01-12T03:15:39.843Z,100060.00
2023-01-12T03:18:22.440Z,100064.00
2023-01-12T03:20:53.192Z,100062.00
2023-01-12T03:23:47.478Z,100059.00
2023-01-12T03:26:16.146Z,100042.00
2023-01-12T03:28:46.766Z,100043.00
2023-01-12T03:31:13.830Z,100051.00
2023-01-12T03:33:42.638Z,100041.00
2023-01-12T03:36:24.253Z,100037.00
2023-01-12T03:39:14.975Z,100032.00
2023-01-12T03:41:57.946Z,100037.00
2023-01-12T03:44:35.416Z,100047.00
2023-01-12T03:47:05.479Z,100038.00
2023-01-12T03:49:53.690Z,100046.00
2023-01-12T03:52:21.172Z,100044.00
2023-01-12T03:54:48.507Z,100039.00
2023-01-12T03:57:15.378Z,100040.00
2023-01-12T03:59:42.154Z,100014.00
2023-01-12T04:02:09.844Z,100036.00
2023-01-12T04:04:36.475Z,100044.00
2023-01-12T04:07:03.002Z,100038.00
2023-01-12T04:09:29.531Z,100030.00
2023-01-12T04:12:11.230Z,100029.00
2023-01-12T04:14:42.576Z,100035.00
2023-01-12T04:17:11.313Z,100036.00
2023-01-12T04:19:37.959Z,100028.00
2023-01-12T04:22:22.953Z,100023.00
2023-01-12T04:24:49.543Z,100025.00
2023-01-12T04:27:16.788Z,100026.00
2023-01-12T04:29:44.243Z,100028.00
2023-01-12T04:32:11.197Z,100015.00
2023-01-12T04:34:39.395Z,100015.00
2023-01-12T04:37:05.938Z,100012.00
2023-01-12T04:39:32.507Z,100003.00
2023-01-12T04:41:59.003Z,100001.00
2023-01-12T04:44:25.506Z,99993.00
2023-01-12T04:46:52.030Z,99982.00
2023-01-12T04:49:18.536Z,99998.00
2023-01-12T04:51:46.047Z,99988.00
2023-01-12T04:54:12.633Z,99993.00
2023-01-12T04:56:39.195Z,99983.00
2023-01-12T04:59:07.305Z,99989.00
2023-01-12T05:01:34.068Z,99993.00
2023-01-12T05:04:00.852Z,99986.00
2023-01-12T05:06:28.298Z,99993.00
2023-01-12T05:09:13.364Z,99993.00
2023-01-12T05:11:39.896Z,99990.00
2023-01-12T05:14:06.416Z,99986.00
2023-01-12T05:16:33.707Z,99999.00
2023-01-12T05:19:00.227Z,99978.00
2023-01-12T05:21:26.745Z,99977.00
2023-01-12T05:23:53.395Z,99973.00
2023-01-12T05:26:20.320Z,99972.00
2023-01-12T05:28:52.347Z,99968.00
2023-01-12T05:31:19.594Z,99976.00
2023-01-12T05:33:46.552Z,99968.00
2023-01-12T05:36:14.673Z,99962.00
2023-01-12T05:38:41.525Z,99966.00
2023-01-12T05:41:10.211Z,99956.00
2023-01-12T05:43:52.036Z,99957.00
2023-01-12T05:46:30.297Z,99973.00
2023-01-12T05:48:57.962Z,99965.00
2023-01-12T05:51:26.205Z,99971.00
2023-01-12T05:53:52.768Z,99964.00
2023-01-12T05:56:21.674Z,99961.00
2023-01-12T05:58:53.153Z,99959.00
2023-01-12T06:01:20.521Z,99956.00
2023-01-12T06:03:55.241Z,99957.00
2023-01-12T06:06:23.497Z,99963.00
2023-01-12T06:08:52.612Z,99966.00
2023-01-12T06:11:38.411Z,99960.00
2023-01-12T06:14:05.927Z,99961.00
2023-01-12T06:16:32.869Z,99967.00
2023-01-12T06:18:59.506Z,99959.00
2023-01-12T06:21:26.078Z,99957.00
2023-01-12T06:23:52.637Z,99955.00
2023-01-12T06:26:19.304Z,99959.00
2023-01-12T06:28:45.857Z,99949.00
2023-01-12T06:31:13.651Z,99947.00
2023-01-12T06:33:40.459Z,99945.00
2023-01-12T06:36:07.632Z,99944.00
2023-01-12T06:38:37.102Z,99950.00
2023-01-12T06:41:30.949Z,99937.00
2023-01-12T06:43:57.784Z,99945.00
2023-01-12T06:46:25.765Z,99942.00
2023-01-12T06:48:52.398Z,99939.00
2023-01-12T06:51:19.007Z,99942.00
2023-01-12T06:53:45.543Z,99947.00
2023-01-12T06:56:12.078Z,99926.00
2023-01-12T06:58:38.607Z,99930.00
2023-01-12T07:01:05.368Z,99934.00
2023-01-12T07:03:31.966Z,99948.00
2023-01-12T07:05:59.641Z,99931.00
2023-01-12T07:08:27.011Z,99940.00
2023-01-12T07:10:53.703Z,99928.00
2023-01-12T07:13:20.632Z,99933.00
2023-01-12T07:15:47.235Z,99937.00
2023-01-12T07:18:13.778Z,99925.00
2023-01-12T07:20:40.277Z,99940.00
2023-01-12T07:23:06.755Z,99929.00
2023-01-12T07:25:33.273Z,99930.00
2023-01-12T07:27:59.899Z,99925.00
2023-01-12T07:30:26.939Z,99931.00
2023-01-12T07:32:53.720Z,99936.00
2023-01-12T07:35:20.290Z,99927.00
2023-01-12T07:37:49.899Z,99928.00
2023-01-12T07:40:16.622Z,99924.00
2023-01-12T07:42:43.160Z,99919.00
2023-01-12T07:45:10.246Z,99920.00
2023-01-12T07:47:36.766Z,99914.00
2023-01-12T07:50:03.923Z,99906.00
2023-01-12T07:52:30.461Z,99907.00
2023-01-12T07:54:57.050Z,99902.00
2023-01-12T07:57:24.728Z,99894.00
2023-01-12T07:59:51.295Z,99892.00
2023-01-12T08:02:19.204Z,99886.00
2023-01-12T08:04:46.613Z,99885.00
2023-01-12T08:07:14.961Z,99882.00
2023-01-12T08:09:41.662Z,99881.00
2023-01-12T08:12:08.277Z,99873.00
2023-01-12T08:14:37.303Z,99871.00
2023-01-12T08:17:07.535Z,99875.00
2023-01-12T08:19:38.742Z,99864.00
2023-01-12T08:22:09.387Z,99876.00
2023-01-12T08:24:40.957Z,99874.00
2023-01-12T08:27:09.268Z,99881.00
2023-01-12T08:29:46.149Z,99874.00
2023-01-12T08:32:13.732Z,99876.00
2023-01-12T08:34:42.136Z,99862.00
2023-01-12T08:37:12.225Z,99864.00
2023-01-12T08:39:39.420Z,99861.00
2023-01-12T08:42:06.107Z,99859.00
2023-01-12T08:44:34.877Z,99856.00
2023-01-12T08:47:02.074Z,99851.00
2023-01-12T08:49:30.745Z,99854.00
2023-01-12T08:51:57.582Z,99849.00
2023-01-12T08:54:24.591Z,99850.00
2023-01-12T08:56:51.440Z,99846.00
2023-01-12T08:59:19.170Z,99850.00
2023-01-12T09:01:46.159Z,99830.00
2023-01-12T09:04:12.889Z,99843.00
2023-01-12T09:06:41.845Z,99817.00
2023-01-12T09:09:10.633Z,99835.00
2023-01-12T09:11:39.026Z,99828.00
2023-01-12T09:14:06.152Z,99823.00
2023-01-12T09:16:33.655Z,99829.00
2023-01-12T09:19:00.843Z,99820.00
2023-01-12T09:21:28.753Z,99810.00
2023-01-12T09:23:56.061Z,99804.00
2023-01-12T09:26:33.167Z,99818.00
2023-01-12T09:29:00.493Z,99828.00
2023-01-12T09:31:28.430Z,99811.00
2023-01-12T09:33:56.086Z,99812.00
2023-01-12T09:36:27.893Z,99801.00
2023-01-12T09:38:54.690Z,99802.00
2023-01-12T09:41:50.079Z,99808.00
2023-01-12T09:44:38.310Z,99799.00
2023-01-12T09:47:09.276Z,99799.00
2023-01-12T09:49:45.725Z,99801.00
2023-01-12T09:52:16.586Z,99788.00
2023-01-12T09:54:43.592Z,99770.00
2023-01-12T09:57:28.373Z,99766.00
2023-01-12T10:00:16.185Z,99775.00
2023-01-12T10:02:46.957Z,99779.00
2023-01-12T10:05:40.008Z,99755.00
2023-01-12T10:08:14.270Z,99763.00
2023-01-12T10:10:45.166Z,99765.00
2023-01-12T10:13:14.136Z,99757.00
2023-01-12T10:15:46.432Z,99752.00
2023-01-12T10:18:28.588Z,99755.00
2023-01-12T10:20:59.608Z,99759.00
2023-01-12T10:23:27.526Z,99754.00
2023-01-12T10:26:16.214Z,99733.00
2023-01-12T10:28:44.067Z,99738.00
2023-01-12T10:31:17.007Z,99749.00
2023-01-12T10:34:07.955Z,99732.00
2023-01-12T10:36:43.642Z,99753.00
2023-01-12T10:39:31.339Z,99709.00
2023-01-12T10:42:36.017Z,99727.00
2023-01-12T10:45:22.485Z,99730.00
2023-01-12T10:47:51.823Z,99706.00
2023-01-12T10:50:33.800Z,99699.00
2023-01-12T10:53:03.916Z,99720.00
2023-01-12T10:55:33.123Z,99704.00
2023-01-12T10:57:59.704Z,99698.00
2023-01-12T11:00:27.818Z,99706.00
2023-01-12T11:02:54.727Z,99699.00
2023-01-12T11:05:38.576Z,99697.00
2023-01-12T11:08:27.134Z,99682.00
2023-01-12T11:10:54.301Z,99688.00
2023-01-12T11:13:36.652Z,99666.00
2023-01-12T11:16:22.975Z,99675.00
2023-01-12T11:19:05.891Z,99677.00
2023-01-12T11:21:36.881Z,99673.00
2023-01-12T11:24:43.574Z,99661.00
2023-01-12T11:27:17.912Z,99651.00
2023-01-12T11:30:07.767Z,99647.00
2023-01-12T11:32:44.384Z,99647.00
2023-01-12T11:35:41.837Z,99647.00
2023-01-12T11:38:17.335Z,99647.00
2023-01-12T11:40:44.346Z,99618.00
2023-01-12T11:43:50.592Z,99633.00
2023-01-12T11:46:43.356Z,99625.00
2023-01-12T11:49:22.602Z,99626.00
2023-01-12T11:51:51.306Z,99629.00
2023-01-12T11:54:18.952Z,99622.00
2023-01-12T11:57:13.547Z,99616.00
2023-01-12T11:59:48.965Z,99616.00
2023-01-12T12:02:37.459Z,99611.00
2023-01-12T12:05:41.424Z,99620.00
2023-01-12T12:08:32.403Z,99627.00
2023-01-12T12:10:59.752Z,99637.00
2023-01-12T12:13:39.518Z,99623.00
2023-01-12T12:16:27.025Z,99619.00
2023-01-12T12:19:05.342Z,99626.00
2023-01-12T12:21:44.307Z,99617.00
2023-01-12T12:24:35.976Z,99627.00
2023-01-12T12:27:24.410Z,99633.00
2023-01-12T12:30:15.746Z,99619.00
2023-01-12T12:33:02.520Z,99617.00
2023-01-12T12:35:41.260Z,99591.00
2023-01-12T12:38:22.707Z,99611.00
2023-01-12T12:41:23.250Z,99612.00
2023-01-12T12:44:17.534Z,99615.00
2023-01-12T12:47:21.025Z,99614.00
2023-01-12T12:49:47.751Z,99610.00
2023-01-12T12:52:14.558Z,99607.00
2023-01-12T12:54:41.164Z,99615.00
2023-01-12T12:57:07.648Z,99610.00
2023-01-12T12:59:34.134Z,99593.00
2023-01-12T13:02:04.397Z,99584.00
2023-01-12T13:04:43.031Z,99612.00
2023-01-12T13:07:21.306Z,99604.00
2023-01-12T13:09:49.278Z,99611.00
2023-01-12T13:12:31.916Z,99599.00
2023-01-12T13:15:20.378Z,99597.00
2023-01-12T13:17:48.917Z,99597.00
2023-01-12T13:20:25.005Z,99579.00
2023-01-12T13:22:52.714Z,99594.00
2023-01-12T13:25:27.216Z,99594.00
2023-01-12T13:28:00.037Z,99604.00
2023-01-12T13:30:26.649Z,99599.00
2023-01-12T13:32:53.138Z,99589.00
2023-01-12T13:35:34.954Z,99600.00
2023-01-12T13:38:11.908Z,99588.00
2023-01-12T13:40:38.927Z,99602.00
2023-01-12T13:43:22.506Z,99585.00
2023-01-12T13:45:53.592Z,99596.00
2023-01-12T13:48:21.104Z,99600.00
2023-01-12T13:50:55.270Z,99593.00
2023-01-12T13:53:28.737Z,99594.00
2023-01-12T13:56:00.372Z,99593.00
2023-01-12T13:58:28.854Z,99588.00
2023-01-12T14:01:00.314Z,99594.00
2023-01-12T14:03:47.473Z,99603.00
2023-01-12T14:06:51.361Z,99585.00
2023-01-12T14:09:41.246Z,99596.00
2023-01-12T14:12:15.174Z,99589.00
2023-01-12T14:15:26.737Z,99599.00
2023-01-12T14:18:02.881Z,99591.00
2023-01-12T14:20:32.922Z,99592.00
2023-01-12T14:23:28.413Z,99599.00
2023-01-12T14:26:14.005Z,99598.00
2023-01-12T14:28:42.890Z,99598.00
2023-01-12T14:31:16.412Z,99584.00
2023-01-12T14:33:58.381Z,99591.00
2023-01-12T14:36:35.875Z,99602.00
2023-01-12T14:39:07.573Z,99593.00
2023-01-12T14:41:52.427Z,99588.00
2023-01-12T14:44:42.843Z,99585.00
2023-01-12T14:47:10.052Z,99589.00
2023-01-12T14:49:38.060Z,99585.00
2023-01-12T14:52:19.736Z,99577.00
2023-01-12T14:54:46.271Z,99594.00
2023-01-12T14:57:19.622Z,99592.00
2023-01-12T14:59:47.613Z,99590.00
2023-01-12T15:02:14.132Z,99593.00
2023-01-12T15:05:03.694Z,99586.00
2023-01-12T15:07:40.216Z,99575.00
2023-01-12T15:10:09.805Z,99585.00
2023-01-12T15:12:54.059Z,99596.00
2023-01-12T15:15:24.175Z,99594.00
2023-01-12T15:18:11.940Z,99599.00
2023-01-12T15:21:02.424Z,99583.00
2023-01-12T15:23:52.179Z,99605.00
2023-01-12T15:26:19.463Z,99597.00
2023-01-12T15:28:47.251Z,99603.00
2023-01-12T15:31:36.240Z,99609.00
2023-01-12T15:34:03.789Z,99605.00
2023-01-12T15:36:30.589Z,99604.00
2023-01-12T15:38:57.368Z,99602.00
2023-01-12T15:41:45.654Z,99609.00
2023-01-12T15:44:17.164Z,99588.00
2023-01-12T15:46:43.871Z,99600.00
2023-01-12T15:49:13.223Z,99597.00
2023-01-12T15:51:41.019Z,99593.00
2023-01-12T15:54:10.342Z,99599.00
2023-01-12T15:56:36.887Z,99586.00
2023-01-12T15:59:03.828Z,99595.00
2023-01-12T16:01:35.960Z,99589.00
2023-01-12T16:04:39.908Z,99594.00
2023-01-12T16:06:53.055Z,99605.00
2023-01-12T16:09:19.621Z,99593.00
2023-01-12T16:11:46.186Z,99603.00
2023-01-12T16:14:14.163Z,99604.00
2023-01-12T16:16:41.558Z,99603.00
2023-01-12T16:19:09.446Z,99598.00
2023-01-12T16:21:36.579Z,99606.00
2023-01-12T16:24:03.381Z,99597.00
2023-01-12T16:26:30.532Z,99601.00
2023-01-12T16:28:57.801Z,99613.00
2023-01-12T16:31:25.337Z,99611.00
2023-01-12T16:33:52.098Z,99608.00
2023-01-12T16:36:18.787Z,99600.00
2023-01-12T16:38:45.348Z,99595.00
2023-01-12T16:41:18.836Z,99607.00
2023-01-12T16:43:46.378Z,99587.00
2023-01-12T16:46:13.920Z,99605.00
2023-01-12T16:48:42.130Z,99600.00
2023-01-12T16:51:14.135Z,99605.00
2023-01-12T16:53:41.632Z,99607.00
2023-01-12T16:56:12.579Z,99601.00
2023-01-12T16:58:39.355Z,99607.00
2023-01-12T17:01:13.121Z,99608.00
2023-01-12T17:03:41.579Z,99610.00
2023-01-12T17:06:10.776Z,99610.00
2023-01-12T17:08:37.825Z,99626.00
2023-01-12T17:11:09.603Z,99612.00
2023-01-12T17:13:36.995Z,99605.00
2023-01-12T17:16:07.594Z,99618.00
2023-01-12T17:18:34.428Z,99614.00
2023-01-12T17:21:03.023Z,99611.00
2023-01-12T17:23:29.944Z,99609.00
2023-01-12T17:26:01.758Z,99610.00
2023-01-12T17:28:29.870Z,99600.00
2023-01-12T17:30:57.714Z,99601.00
2023-01-12T17:33:24.596Z,99595.00
2023-01-12T17:35:51.264Z,99606.00
2023-01-12T17:38:17.858Z,99605.00
2023-01-12T17:40:44.408Z,99599.00
2023-01-12T17:43:14.515Z,99600.00
2023-01-12T17:45:45.562Z,99592.00
2023-01-12T17:48:12.911Z,99600.00
2023-01-12T17:50:40.410Z,99603.00
2023-01-12T17:53:09.276Z,99585.00
2023-01-12T17:55:47.336Z,99602.00
2023-01-12T17:58:17.368Z,99590.00
2023-01-12T18:00:44.479Z,99591.00
2023-01-12T18:03:11.133Z,99603.00
2023-01-12T18:05:38.505Z,99610.00
2023-01-12T18:08:05.249Z,99595.00
2023-01-12T18:10:32.186Z,99594.00
2023-01-12T18:12:59.001Z,99586.00
2023-01-12T18:15:25.559Z,99596.00
2023-01-12T18:17:52.330Z,99590.00
2023-01-12T18:20:19.106Z,99582.00
2023-01-12T18:22:45.899Z,99592.00
2023-01-12T18:25:12.531Z,99586.00
2023-01-12T18:27:39.048Z,99590.00
2023-01-12T18:30:06.486Z,99586.00
2023-01-12T18:32:33.069Z,99587.00
2023-01-12T18:35:00.229Z,99584.00
2023-01-12T18:37:26.757Z,99584.00
2023-01-12T18:39:53.538Z,99576.00
2023-01-12T18:42:39.126Z,99570.00
2023-01-12T18:45:06.052Z,99575.00
2023-01-12T18:47:51.304Z,99577.00
2023-01-12T18:50:36.947Z,99574.00
2023-01-12T18:53:22.213Z,99572.00
2023-01-12T18:55:51.918Z,99560.00
2023-01-12T18:58:18.435Z,99565.00
2023-01-12T19:00:45.037Z,99562.00
2023-01-12T19:03:12.853Z,99563.00
2023-01-12T19:05:54.625Z,99567.00
2023-01-12T19:08:40.471Z,99555.00
2023-01-12T19:11:11.538Z,99554.00
2023-01-12T19:13:56.960Z,99554.00
2023-01-12T19:16:42.135Z,99560.00
2023-01-12T19:19:08.753Z,99561.00
2023-01-12T19:21:54.353Z,99545.00
2023-01-12T19:24:39.466Z,99554.00
2023-01-12T19:27:24.950Z,99555.00
2023-01-12T19:29:51.599Z,99547.00
2023-01-12T19:32:18.404Z,99556.00
2023-01-12T19:34:44.977Z,99553.00
2023-01-12T19:37:13.111Z,99543.00
2023-01-12T19:39:59.653Z,99551.00
2023-01-12T19:42:46.452Z,99556.00
2023-01-12T19:45:13.265Z,99541.00
2023-01-12T19:47:40.116Z,99547.00
2023-01-12T19:50:08.048Z,99548.00
2023-01-12T19:52:38.501Z,99546.00
2023-01-12T19:55:07.940Z,99551.00
2023-01-12T19:57:37.926Z,99550.00
2023-01-12T20:00:10.226Z,99541.00
2023-01-12T20:02:40.175Z,99537.00
2023-01-12T20:05:06.986Z,99563.00
2023-01-12T20:07:33.633Z,99548.00
2023-01-12T20:10:00.285Z,99535.00
2023-01-12T20:12:26.976Z,99528.00
2023-01-12T20:14:53.660Z,99550.00
2023-01-12T20:17:20.430Z,99544.00
2023-01-12T20:19:48.844Z,99542.00
2023-01-12T20:22:15.462Z,99537.00
2023-01-12T20:24:42.004Z,99522.00
2023-01-12T20:27:09.881Z,99530.00
2023-01-12T20:29:46.164Z,99553.00
2023-01-12T20:32:16.855Z,99545.00
2023-01-12T20:35:04.380Z,99539.00
2023-01-12T20:37:37.610Z,99515.00
2023-01-12T20:40:12.638Z,99542.00
2023-01-12T20:42:55.696Z,99543.00
2023-01-12T20:45:47.314Z,99544.00
2023-01-12T20:48:15.416Z,99501.00
2023-01-12T20:50:45.708Z,99537.00
2023-01-12T20:53:18.399Z,99534.00
2023-01-12T20:55:55.453Z,99528.00
2023-01-12T20:58:23.428Z,99546.00
2023-01-12T21:00:51.879Z,99543.00
2023-01-12T21:03:23.065Z,99522.00
2023-01-12T21:06:01.883Z,99539.00
2023-01-12T21:08:31.489Z,99538.00
2023-01-12T21:10:58.546Z,99526.00
2023-01-12T21:13:26.530Z,99533.00
2023-01-12T21:16:01.319Z,99541.00
2023-01-12T21:18:29.104Z,99519.00
2023-01-12T21:20:56.471Z,99504.00
2023-01-12T21:23:23.789Z,99519.00
2023-01-12T21:25:51.081Z,99527.00
2023-01-12T21:28:51.114Z,99508.00
2023-01-12T21:31:18.389Z,99515.00
2023-01-12T21:33:45.193Z,99523.00
2023-01-12T21:36:13.174Z,99533.00
2023-01-12T21:38:40.251Z,99508.00
2023-01-12T21:41:07.385Z,99502.00
2023-01-12T21:43:37.656Z,99518.00
2023-01-12T21:46:10.049Z,99525.00
2023-01-12T21:48:39.988Z,99524.00
2023-01-12T21:51:14.836Z,99515.00
2023-01-12T21:53:48.518Z,99482.00
2023-01-12T21:56:21.205Z,99506.00
2023-01-12T21:58:48.687Z,99516.00
2023-01-12T22:01:21.407Z,99490.00
2023-01-12T22:03:48.717Z,99491.00
2023-01-12T22:06:16.395Z,99513.00
2023-01-12T22:08:46.315Z,99469.00
2023-01-12T22:11:16.691Z,99502.00
2023-01-12T22:13:44.762Z,99499.00
2023-01-12T22:16:14.760Z,99508.00
2023-01-12T22:18:55.542Z,99492.00
2023-01-12T22:21:26.834Z,99495.00
2023-01-12T22:23:54.309Z,99485.00
2023-01-12T22:26:28.105Z,99488.00
2023-01-12T22:28:54.963Z,99482.00
2023-01-12T22:31:24.172Z,99486.00
2023-01-12T22:34:03.987Z,99482.00
2023-01-12T22:36:34.706Z,99476.00
2023-01-12T22:39:05.187Z,99478.00
2023-01-12T22:41:32.066Z,99474.00
2023-01-12T22:44:05.570Z,99479.00
2023-01-12T22:46:35.587Z,99484.00
2023-01-12T22:49:10.901Z,99475.00
2023-01-12T22:51:39.018Z,99477.00
2023-01-12T22:54:09.109Z,99475.00
2023-01-12T22:56:37.048Z,99474.00
2023-01-12T22:59:03.966Z,99458.00
2023-01-12T23:01:34.236Z,99468.00
2023-01-12T23:04:02.131Z,99452.00
2023-01-12T23:06:28.951Z,99455.00
2023-01-12T23:08:55.992Z,99459.00
2023-01-12T23:11:25.736Z,99456.00
2023-01-12T23:13:52.743Z,99466.00
2023-01-12T23:16:19.576Z,99450.00
2023-01-12T23:18:47.198Z,99440.00
2023-01-12T23:21:16.778Z,99454.00
2023-01-12T23:23:44.266Z,99454.00
2023-01-12T23:26:13.187Z,99439.00
2023-01-12T23:28:43.096Z,99449.00
2023-01-12T23:31:13.048Z,99429.00
2023-01-12T23:33:40.397Z,99440.00
2023-01-12T23:36:13.552Z,99441.00
2023-01-12T23:38:40.469Z,99436.00
2023-01-12T23:41:19.209Z,99425.00
2023-01-12T23:43:47.143Z,99438.00
2023-01-12T23:46:16.923Z,99427.00
2023-01-12T23:48:43.948Z,99427.00
2023-01-12T23:51:10.676Z,99438.00
2023-01-12T23:53:37.277Z,99424.00
2023-01-12T23:56:08.990Z,99418.00
2023-01-12T23:58:35.761Z,99425.00
